SHMÚ vydal hydrologické výstrahy na   Povodeň Display warnings

METAR

Aeronautical MET Report METAR

METAR description (Slovak)

22.10.2020 - 11:30 UTC

METAR LZIB 221130Z 02003KT 300V110 9999 SCT022 14/08 Q1021 NOSIG=
METAR LZKZ 221130Z 19005KT CAVOK 16/09 Q1022 NOSIG=
METAR LZPP 221130Z 15008KT 120V190 CAVOK 16/08 Q1020=
METAR LZSL 221130Z 14008KT 100V190 9999 FEW037 16/07 Q1021=
METAR LZTT 221130Z 13008KT 090V150 CAVOK 15/07 Q1020 NOSIG=
METAR LZZI 221130Z 25003KT 220V280 CAVOK 16/09 Q1019=

22.10.2020 - 11:00 UTC

METAR LZIB 221100Z 06004KT 030V120 9999 SCT020 14/09 Q1021 NOSIG=
METAR LZKZ 221100Z 16004KT 120V210 CAVOK 15/09 Q1022 NOSIG=
METAR LZPP 221100Z 14009KT CAVOK 16/08 Q1020=
METAR LZSL 221100Z 14008KT 100V210 9999 FEW035 16/07 Q1021=
METAR LZTT 221100Z 12007KT CAVOK 15/06 Q1020 NOSIG=
METAR LZZI 221100Z VRB01KT CAVOK 15/09 Q1019=

22.10.2020 - 11:00 UTC

METAR LZMC 221100Z 19006KT 9999 FEW027 SCT200 15/08
Q1021=
METAR LZPW 221100Z 02004KT CAVOK 13/08 Q1022=

 

 

skok na menu ↑


skok na začiatok stránky ↑